• Join FlightAware (Why Join?)
  • Login
  • US Flag 
04:52AM EST


 

Airport Tracker/Info


-or-


 

Live Flight TrackerFlight Track Log ✈ AWI3808 ✈ 21-Apr-2013 ✈ KGSO - KPHL

Flight Track Log - Related Links

Times and Time Zones

All times are in EDT time to prevent confusion due to time zone crossing. See the AWI3808 flight status page for this flight to view local times or setup timezone preferences in your user account.

Time Position Orientation Groundspeed Altitude Reporting Facility
EDT Latitude Longitude Course Direction KTS MPH feet Rate Location/Type
03:21PM 36.1710 -79.7374 53° Northeast  Level FlightAware Approximate
03:22PM 36.2316 -79.6362 53° Northeast  Level FlightAware Approximate
03:22PM 36.2517 -79.6642 44° Northeast 302 348 10,800  Level Washington Center
03:23PM 36.2811 -79.5260 61° Northeast  Level FlightAware Approximate
03:24PM 36.3409 -79.4275 68° East  Level FlightAware Approximate
03:24PM 36.3458 -79.4628 60° Northeast 350 403 14,300  Level Washington Center
03:25PM 36.4004 -79.3328 44° Northeast  Level FlightAware Approximate
03:25PM 36.3931 -79.3592 60° Northeast 355 409 15,900  Level Washington Center
03:26PM 36.4703 -79.2476 44° Northeast  Level FlightAware Approximate
03:26PM 36.4756 -79.2547 45° Northeast 371 427 17,800  Level Washington Center
03:27PM 36.5400 -79.1622 44° Northeast  Level FlightAware Approximate
03:27PM 36.5536 -79.1603 44° Northeast 377 434 19,700  Level Washington Center
03:28PM 36.6228 -79.0806 43° Northeast 377 434 21,400 1,500 Climbing Washington Center
03:29PM 36.6986 -78.9828 46° Northeast 377 434 22,700 840 Climbing Washington Center
03:30PM 36.7789 -78.8722 48° Northeast 401 461 23,100 1,140 Climbing Washington Center
03:31PM 36.8611 -78.7617 47° Northeast 419 482 25,000 1,560 Climbing Washington Center
03:32PM 36.9392 -78.6506 49° Northeast 424 488 26,300 960 Climbing Washington Center
03:33PM 37.0319 -78.5242 47° Northeast 431 496 27,000 300 Climbing Washington Center
03:34PM 37.1183 -78.4050 48° Northeast 441 507 27,000  Level Washington Center
03:35PM 37.2022 -78.2881 48° Northeast 452 520 27,000  Level Washington Center
03:36PM 37.2797 -78.1839 47° Northeast 452 520 27,000  Level Washington Center
03:37PM 37.3678 -78.0561 49° Northeast 452 520 27,000  Level Washington Center
03:38PM 37.4494 -77.9411 48° Northeast 452 520 27,000  Level Washington Center
03:39PM 37.5331 -77.8256 48° Northeast 447 514 27,000  Level Washington Center
03:40PM 37.6328 -77.7369 35° Northeast 437 503 27,000  Level Washington Center
03:41PM 37.7303 -77.6450 37° Northeast 437 503 27,000  Level Washington Center
03:42PM 37.8319 -77.5558 35° Northeast 437 503 27,000  Level Washington Center
03:43PM 37.9292 -77.4636 37° Northeast 437 503 27,000  Level Washington Center
03:44PM 38.0267 -77.3739 36° Northeast 437 503 27,000  Level Washington Center
03:45PM 38.1217 -77.2889 35° Northeast 430 495 27,000  Level Washington Center
03:46PM 38.2208 -77.1986 36° Northeast 430 495 27,000 -300 Level Washington Center
03:47PM 38.3181 -77.1081 36° Northeast 435 501 26,500 -1,260 Descending Washington Center
03:48PM 38.4275 -77.0069 36° Northeast 443 510 24,500 -1,260 Descending Washington Center
03:49PM 38.5456 -76.8978 36° Northeast 490 564 24,000 -300 Descending Washington Center
03:50PM 38.6594 -76.7906 36° Northeast 501 577 24,000 -480 Level Washington Center
03:51PM 38.7356 -76.6483 56° Northeast 488 562 23,100 -1,680 Descending Washington Center
03:52PM 38.7578 -76.4942 79° East 467 537 20,700 -2,400 Descending Washington Center
03:53PM 38.7881 -76.3375 76° East 462 532 18,400 -1,980 Descending Washington Center
03:54PM 38.8181 -76.1911 75° East 439 505 16,800 -1,740 Descending Washington Center
03:55PM 38.8519 -76.0475 73° East 421 484 15,000 -900 Descending Washington Center
03:56PM 38.8794 -75.9117 75° East 407 468 15,000  Level Washington Center
03:57PM 38.9381 -75.7892 58° Northeast 402 463 15,000  Level Washington Center
03:58PM 39.0300 -75.7092 34° Northeast 376 433 15,000 -900 Level Washington Center
03:59PM 39.1239 -75.6692 18° North 371 427 13,300 -2,460 Descending Washington Center
04:00PM 39.2239 -75.6586 North 346 398 10,100 -2,100 Descending Washington Center
04:01PM 39.2814 -75.6506 North 295 339 10,000 -120 Descending FAA TRACON SMA TRACON (SMA)
04:01PM 39.3042 -75.6358 27° Northeast 299 344 10,000  Level FAA TRACON SMA TRACON (SMA)
04:01PM 39.3242 -75.6167 37° Northeast 288 331 10,000  Level FAA TRACON SMA TRACON (SMA)
04:02PM 39.3456 -75.5997 31° Northeast 286 329 10,000  Level FAA TRACON SMA TRACON (SMA)
04:02PM 39.3725 -75.5767 33° Northeast 289 333 10,000  Level FAA TRACON SMA TRACON (SMA)
04:02PM 39.3942 -75.5578 34° Northeast 290 334 10,000 -1,080 Level FAA TRACON SMA TRACON (SMA)
04:03PM 39.4128 -75.5383 39° Northeast 274 315 9,300 -2,520 Descending FAA TRACON SMA TRACON (SMA)
04:03PM 39.4242 -75.5069 65° Northeast 279 321 8,400 -2,400 Descending FAA TRACON SMA TRACON (SMA)
04:03PM 39.4350 -75.4750 66° East 279 321 7,700 -1,860 Descending FAA TRACON SMA TRACON (SMA)
04:04PM 39.4431 -75.4514 66° East 278 320 7,200 -1,140 Descending FAA TRACON SMA TRACON (SMA)
04:04PM 39.4581 -75.4222 56° Northeast 273 314 7,000 -780 Descending FAA TRACON SMA TRACON (SMA)
04:04PM 39.4733 -75.3911 58° Northeast 268 308 6,700 -1,080 Descending FAA TRACON SMA TRACON (SMA)
04:05PM 39.4856 -75.3661 58° Northeast 267 307 6,300 -1,200 Descending FAA TRACON SMA TRACON (SMA)
04:05PM 39.4972 -75.3417 58° Northeast 262 302 5,900 -1,380 Descending FAA TRACON SMA TRACON (SMA)
04:05PM 39.5111 -75.3131 58° Northeast 256 295 5,400 -1,500 Descending FAA TRACON SMA TRACON (SMA)
04:06PM 39.5267 -75.2942 43° Northeast 245 282 4,900 -1,680 Descending FAA TRACON SMA TRACON (SMA)
04:06PM 39.5417 -75.2758 43° Northeast 243 280 4,300 -1,800 Descending FAA TRACON SMA TRACON (SMA)
04:06PM 39.5603 -75.2528 44° Northeast 240 276 3,700 -1,680 Descending FAA TRACON SMA TRACON (SMA)
04:07PM 39.5750 -75.2339 45° Northeast 241 277 3,200 -1,080 Descending FAA TRACON SMA TRACON (SMA)
04:07PM 39.5878 -75.2136 51° Northeast 243 280 3,000 -300 Descending FAA TRACON SMA TRACON (SMA)
04:07PM 39.6069 -75.1900 44° Northeast 241 277 3,000  Level FAA TRACON SMA TRACON (SMA)
04:08PM 39.6186 -75.1744 46° Northeast 241 277 3,000  Level FAA TRACON SMA TRACON (SMA)
04:08PM 39.6358 -75.1519 45° Northeast 238 274 3,000 -180 Level FAA TRACON SMA TRACON (SMA)
04:08PM 39.6606 -75.1475 North 229 264 2,900 -780 Descending FAA TRACON SMA TRACON (SMA)
04:09PM 39.6794 -75.1478 359° North 232 267 2,500 -1,200 Descending FAA TRACON SMA TRACON (SMA)